Change the Weather History Date:

Thursday, April 18, 2013

  Actual Average Record
Temperature  
Mean Temperature 46 °F -  
Max Temperature 54 °F 56 °F 79 °F (1962)
Min Temperature 38 °F 37 °F 28 °F (1964)
Degree Days  
Heating Degree Days 19    
Moisture  
Dew Point 44 °F    
Average Humidity 87    
Maximum Humidity 96    
Minimum Humidity 70    
Precipitation  
Precipitation 0.05 in - - ()
Sea Level Pressure  
Sea Level Pressure 30.41 in    
Wind  
Wind Speed 7 mph (SSW)    
Max Wind Speed 14 mph    
Max Gust Speed -    
Visibility 10 miles    
Events Rain    
Averages and records for this station are not official NWS values.
T = Trace of Precipitation, MM = Missing Value Source: NWS Daily Summary

Daily Weather History Graph

Daily Weather History Graph

Search for Another Location

Airport or City:

Trip Planner

Search our weather history database for the weather conditions in past years. The results will help you decide how hot, cold, wet, or windy it might be!

Date:

Astronomy

Apr. 18, 2013 Rise Set
Actual Time 6:15 AM PDT 8:03 PM PDT
Civil Twilight 5:43 AM PDT 8:35 PM PDT
Nautical Twilight 5:03 AM PDT 9:15 PM PDT
Astronomical Twilight 4:20 AM PDT 9:59 PM PDT
Moon 12:28 PM PDT (4/18) 2:26 AM PDT (4/18)
Length of Visible Light 14h 52m
Length of Day
13h 47m
First Quarter, 53% of the Moon is Illuminated
Apr 18
First Quarter
Apr 25
Full
May 2
Last Quarter
May 9
New
May 17
First Quarter

Hourly Weather History & Observations

Time (PDT) Temp. Windchill Dew Point Humidity Pressure Visibility Wind Dir Wind Speed Gust Speed Precip Events Conditions
12:58 AM 38.5 °F 35.0 °F 36.3 °F 92% 30.48 in 10.0 mi South 4.6 mph - N/A   Overcast
1:53 AM 41.0 °F 38.0 °F 39.2 °F 93% 30.47 in 10.0 mi South 4.6 mph - N/A   Overcast
1:58 AM 41.7 °F 38.8 °F 38.7 °F 89% 30.48 in 10.0 mi South 4.6 mph - N/A   Overcast
2:58 AM 42.1 °F 38.4 °F 38.8 °F 88% 30.48 in 10.0 mi SSE 5.8 mph - N/A   Overcast
3:28 AM 42.8 °F 40.1 °F 39.2 °F 87% 30.46 in 10.0 mi South 4.6 mph - N/A   Overcast
3:58 AM 42.6 °F 39.9 °F 39.2 °F 88% 30.48 in 10.0 mi South 4.6 mph - N/A   Overcast
4:58 AM 43.3 °F 39.9 °F 38.8 °F 84% 30.48 in 10.0 mi SSW 5.8 mph - N/A   Overcast
5:45 AM 42.8 °F 38.6 °F 39.2 °F 87% 30.45 in 10.0 mi SSW 6.9 mph - N/A Rain Light Rain
5:56 AM 42.8 °F 38.6 °F 39.2 °F 87% 30.45 in 10.0 mi SSW 6.9 mph - N/A   Overcast
5:58 AM 42.8 °F 39.3 °F 39.2 °F 87% 30.47 in 10.0 mi SSW 5.8 mph - 0.00 in   Overcast
6:03 AM 42.8 °F 39.3 °F 39.2 °F 87% 30.45 in 10.0 mi SSW 5.8 mph - N/A Rain Light Rain
6:35 AM 42.8 °F 40.1 °F 39.2 °F 87% 30.45 in 10.0 mi South 4.6 mph - N/A   Overcast
6:36 AM 42.8 °F 41.1 °F 39.2 °F 87% 30.45 in 10.0 mi South 3.5 mph - N/A Rain Light Rain
6:58 AM 42.4 °F 38.8 °F 39.7 °F 90% 30.47 in 10.0 mi South 5.8 mph - 0.00 in Rain Light Rain
7:26 AM 42.8 °F 39.3 °F 41.0 °F 93% 30.46 in 10.0 mi South 5.8 mph - N/A   Overcast
7:35 AM 42.8 °F 38.6 °F 41.0 °F 93% 30.46 in 10.0 mi South 6.9 mph - N/A Rain Light Rain
7:58 AM 43.2 °F 39.7 °F 41.4 °F 93% 30.48 in 10.0 mi South 5.8 mph - 0.00 in Rain Light Rain
8:05 AM 42.8 °F 38.6 °F 41.0 °F 93% 30.47 in 10.0 mi South 6.9 mph - N/A   Overcast
8:08 AM 42.8 °F 38.6 °F 41.0 °F 93% 30.46 in 10.0 mi South 6.9 mph - N/A Rain Light Rain
8:26 AM 42.8 °F 38.0 °F 41.0 °F 93% 30.47 in 10.0 mi South 8.1 mph - N/A   Overcast
8:36 AM 42.8 °F 38.6 °F 41.0 °F 93% 30.47 in 10.0 mi South 6.9 mph - N/A Rain Light Rain
8:53 AM 44.6 °F 41.4 °F 41.0 °F 87% 30.47 in 10.0 mi South 5.8 mph - N/A   Overcast
8:58 AM 43.9 °F 40.5 °F 41.7 °F 92% 30.49 in 10.0 mi South 5.8 mph - 0.00 in   Overcast
9:58 AM 45.7 °F 40.6 °F 41.2 °F 84% 30.49 in 10.0 mi South 10.4 mph - N/A   Overcast
10:13 AM 46.4 °F 43.5 °F 41.0 °F 81% 30.47 in 10.0 mi South 5.8 mph - N/A Rain Light Rain
10:23 AM 46.4 °F 41.9 °F 42.8 °F 87% 30.47 in 10.0 mi SSW 9.2 mph - N/A Rain Light Rain
10:28 AM 46.4 °F 41.9 °F 42.8 °F 87% 30.47 in 10.0 mi SSW 9.2 mph - N/A Rain Light Rain
10:29 AM 46.4 °F 41.9 °F 42.8 °F 87% 30.47 in 10.0 mi South 9.2 mph - N/A   Overcast
10:34 AM 46.4 °F 42.4 °F 42.8 °F 87% 30.47 in 10.0 mi SSW 8.1 mph - N/A   Overcast
10:41 AM 46.4 °F 41.5 °F 41.0 °F 81% 30.46 in 10.0 mi South 10.4 mph - N/A Rain Light Rain
10:46 AM 48.2 °F - 42.8 °F 82% 30.46 in 10.0 mi South 11.5 mph - N/A Rain Light Rain
10:53 AM 48.2 °F - 42.8 °F 82% 30.46 in 10.0 mi SSW 9.2 mph - N/A   Overcast
10:58 AM 47.3 °F - 41.9 °F 82% 30.48 in 10.0 mi South 8.1 mph - 0.00 in   Overcast
11:03 AM 48.2 °F - 42.8 °F 82% 30.46 in 10.0 mi SSW 8.1 mph - N/A   Overcast
11:48 AM 48.2 °F - 42.8 °F 82% 30.46 in 10.0 mi South 6.9 mph - N/A   Overcast
11:58 AM 49.1 °F - 42.1 °F 77% 30.47 in 10.0 mi SSW 9.2 mph - N/A   Overcast
12:03 PM 50.0 °F - 42.8 °F 76% 30.45 in 10.0 mi SSW 10.4 mph - N/A   Overcast
12:58 PM 52.0 °F - 42.6 °F 70% 30.45 in 10.0 mi SW 10.4 mph - N/A   Overcast
1:58 PM 52.2 °F - 42.6 °F 70% 30.44 in 10.0 mi South 9.2 mph - N/A   Overcast
2:58 PM 53.6 °F - 44.1 °F 70% 30.42 in 10.0 mi SW 11.5 mph - N/A   Overcast
3:02 PM 53.6 °F - 44.6 °F 72% 30.40 in 10.0 mi SW 12.7 mph - N/A Rain Light Rain
3:24 PM 53.6 °F - 44.6 °F 72% 30.39 in 10.0 mi SSW 11.5 mph - N/A   Overcast
3:29 PM 53.6 °F - 44.6 °F 72% 30.39 in 10.0 mi SSW 11.5 mph - N/A   Overcast
3:54 PM 53.6 °F - 44.6 °F 72% 30.38 in 10.0 mi SSW 9.2 mph - N/A Rain Light Rain
3:58 PM 54.0 °F - 45.0 °F 72% 30.40 in 10.0 mi SSW 13.8 mph - 0.00 in Rain Light Rain
4:52 PM 51.8 °F - 46.4 °F 82% 30.37 in 10.0 mi SSW 11.5 mph - N/A   Overcast
4:58 PM 51.3 °F - 46.8 °F 85% 30.39 in 10.0 mi SSW 9.2 mph - 0.01 in   Overcast
5:08 PM 51.8 °F - 46.4 °F 82% 30.36 in 10.0 mi SSW 9.2 mph - N/A   Overcast
5:44 PM 51.8 °F - 46.4 °F 82% 30.36 in 10.0 mi SSW 8.1 mph - N/A Rain Light Rain
5:55 PM 50.0 °F - 46.4 °F 87% 30.36 in 10.0 mi South 8.1 mph - N/A   Overcast
5:58 PM 50.7 °F - 46.9 °F 87% 30.38 in 10.0 mi South 9.2 mph - 0.00 in   Overcast
6:13 PM 50.0 °F - 48.2 °F 94% 30.35 in 10.0 mi SSW 9.2 mph - N/A   Overcast
6:14 PM 50.0 °F - 48.2 °F 94% 30.35 in 10.0 mi SSW 10.4 mph - N/A Rain Light Rain
6:23 PM 50.0 °F - 46.4 °F 87% 30.35 in 10.0 mi SSW 10.4 mph - N/A   Overcast
6:37 PM 50.0 °F - 46.4 °F 87% 30.35 in 10.0 mi SSW 12.7 mph - N/A Rain Light Rain
6:42 PM 50.0 °F - 46.4 °F 87% 30.35 in 10.0 mi SSW 8.1 mph - N/A Rain Light Rain
6:47 PM 50.0 °F - 46.4 °F 87% 30.35 in 10.0 mi SSW 9.2 mph - N/A Rain Light Rain
6:58 PM 50.4 °F - 47.3 °F 89% 30.36 in 10.0 mi SSW 12.7 mph - 0.01 in Rain Light Rain
7:23 PM 50.0 °F - 48.2 °F 94% 30.33 in 10.0 mi SSW 9.2 mph - N/A Rain Light Rain
7:38 PM 50.0 °F - 48.2 °F 94% 30.32 in 10.0 mi South 8.1 mph - N/A Rain Light Rain
7:43 PM 50.0 °F - 48.2 °F 94% 30.32 in 10.0 mi South 10.4 mph - N/A Rain Light Rain
7:58 PM 49.3 °F - 48.2 °F 96% 30.34 in 10.0 mi SSW 10.4 mph - 0.01 in Rain Light Rain
8:08 PM 50.0 °F - 48.2 °F 94% 30.31 in 10.0 mi South 8.1 mph - N/A Rain Light Rain
8:13 PM 50.0 °F - 48.2 °F 94% 30.31 in 10.0 mi South 9.2 mph - N/A   Overcast
8:58 PM 49.5 °F - 48.0 °F 95% 30.33 in 10.0 mi South 8.1 mph - 0.01 in   Overcast
9:53 PM 50.0 °F - 48.2 °F 94% 30.30 in 10.0 mi South 8.1 mph - N/A   Overcast
9:58 PM 49.3 °F - 48.0 °F 95% 30.32 in 10.0 mi South 6.9 mph - N/A   Overcast
10:08 PM 50.0 °F - 48.2 °F 94% 30.29 in 10.0 mi South 8.1 mph - N/A   Overcast
10:58 PM 50.4 °F - 46.9 °F 88% 30.29 in 10.0 mi South 8.1 mph - N/A   Overcast
11:08 PM 50.0 °F - 46.4 °F 87% 30.27 in 10.0 mi South 8.1 mph - N/A   Overcast
11:36 PM 50.0 °F - 48.2 °F 94% 30.25 in 10.0 mi South 6.9 mph - N/A Rain Light Rain
11:49 PM 50.0 °F - 48.2 °F 94% 30.25 in 10.0 mi South 10.4 mph - N/A   Overcast
11:58 PM 49.8 °F - 47.5 °F 92% 30.27 in 10.0 mi South 9.2 mph - 0.01 in   Overcast